sensor_id;sensor_type;location;lat;lon;timestamp;temperature;humidity
40257;DHT22;25977;45.462;9.210;2022-11-11T00:02:10;15.00;93.40
40257;DHT22;25977;45.462;9.210;2022-11-11T00:04:54;15.00;93.40
40257;DHT22;25977;45.462;9.210;2022-11-11T00:07:38;15.00;93.30
40257;DHT22;25977;45.462;9.210;2022-11-11T00:10:22;15.00;93.30
40257;DHT22;25977;45.462;9.210;2022-11-11T00:13:06;15.00;93.30
40257;DHT22;25977;45.462;9.210;2022-11-11T00:18:38;15.70;93.50
40257;DHT22;25977;45.462;9.210;2022-11-11T00:21:41;14.90;93.30
40257;DHT22;25977;45.462;9.210;2022-11-11T00:24:29;15.00;93.30
40257;DHT22;25977;45.462;9.210;2022-11-11T00:27:33;14.90;93.20
40257;DHT22;25977;45.462;9.210;2022-11-11T00:30:18;14.90;93.30
40257;DHT22;25977;45.462;9.210;2022-11-11T00:33:02;14.90;93.30
40257;DHT22;25977;45.462;9.210;2022-11-11T00:35:46;14.90;93.30
40257;DHT22;25977;45.462;9.210;2022-11-11T00:38:36;14.90;93.40
40257;DHT22;25977;45.462;9.210;2022-11-11T00:41:30;14.90;93.40
40257;DHT22;25977;45.462;9.210;2022-11-11T00:44:14;14.90;93.30
40257;DHT22;25977;45.462;9.210;2022-11-11T00:46:58;14.90;93.40
40257;DHT22;25977;45.462;9.210;2022-11-11T00:50:05;14.90;93.40
40257;DHT22;25977;45.462;9.210;2022-11-11T00:55:57;14.80;93.30
40257;DHT22;25977;45.462;9.210;2022-11-11T00:58:41;14.90;93.40
40257;DHT22;25977;45.462;9.210;2022-11-11T01:01:25;14.80;93.40
40257;DHT22;25977;45.462;9.210;2022-11-11T01:04:09;14.90;93.40
40257;DHT22;25977;45.462;9.210;2022-11-11T01:06:53;14.80;93.40
40257;DHT22;25977;45.462;9.210;2022-11-11T01:09:37;14.70;93.40
40257;DHT22;25977;45.462;9.210;2022-11-11T01:12:22;14.80;93.50
40257;DHT22;25977;45.462;9.210;2022-11-11T01:15:06;14.80;93.60
40257;DHT22;25977;45.462;9.210;2022-11-11T01:17:51;14.80;93.30
40257;DHT22;25977;45.462;9.210;2022-11-11T01:20:36;14.80;93.30
40257;DHT22;25977;45.462;9.210;2022-11-11T01:23:21;14.80;93.20
40257;DHT22;25977;45.462;9.210;2022-11-11T01:28:55;14.70;93.10
40257;DHT22;25977;45.462;9.210;2022-11-11T01:31:40;14.70;93.30
40257;DHT22;25977;45.462;9.210;2022-11-11T01:34:24;14.80;93.10
40257;DHT22;25977;45.462;9.210;2022-11-11T01:37:08;14.70;93.00
40257;DHT22;25977;45.462;9.210;2022-11-11T01:39:52;14.70;93.00
40257;DHT22;25977;45.462;9.210;2022-11-11T01:42:50;14.70;93.00
40257;DHT22;25977;45.462;9.210;2022-11-11T01:45:55;14.70;93.00
40257;DHT22;25977;45.462;9.210;2022-11-11T01:48:45;14.70;93.00
40257;DHT22;25977;45.462;9.210;2022-11-11T01:55:19;14.60;92.90
40257;DHT22;25977;45.462;9.210;2022-11-11T01:58:07;14.70;92.80
40257;DHT22;25977;45.462;9.210;2022-11-11T02:00:52;14.60;92.80
40257;DHT22;25977;45.462;9.210;2022-11-11T02:03:40;14.60;92.70
40257;DHT22;25977;45.462;9.210;2022-11-11T02:06:25;14.60;92.70
40257;DHT22;25977;45.462;9.210;2022-11-11T02:09:11;14.60;92.60
40257;DHT22;25977;45.462;9.210;2022-11-11T02:11:57;14.60;92.60
40257;DHT22;25977;45.462;9.210;2022-11-11T02:15:02;14.60;92.50
40257;DHT22;25977;45.462;9.210;2022-11-11T02:17:48;14.60;92.40
40257;DHT22;25977;45.462;9.210;2022-11-11T02:20:38;14.60;92.50
40257;DHT22;25977;45.462;9.210;2022-11-11T02:26:15;14.60;92.30
40257;DHT22;25977;45.462;9.210;2022-11-11T02:29:02;14.60;92.30
40257;DHT22;25977;45.462;9.210;2022-11-11T02:31:48;14.60;92.40
40257;DHT22;25977;45.462;9.210;2022-11-11T02:34:33;14.60;92.40
40257;DHT22;25977;45.462;9.210;2022-11-11T02:37:21;14.50;92.50
40257;DHT22;25977;45.462;9.210;2022-11-11T02:40:06;14.50;92.60
40257;DHT22;25977;45.462;9.210;2022-11-11T02:42:52;14.50;92.60
40257;DHT22;25977;45.462;9.210;2022-11-11T02:45:36;14.50;92.60
40257;DHT22;25977;45.462;9.210;2022-11-11T02:48:21;14.50;92.50
40257;DHT22;25977;45.462;9.210;2022-11-11T02:51:06;14.50;92.50
40257;DHT22;25977;45.462;9.210;2022-11-11T02:53:51;14.50;92.40
40257;DHT22;25977;45.462;9.210;2022-11-11T02:56:41;14.40;92.40
40257;DHT22;25977;45.462;9.210;2022-11-11T02:59:44;14.50;92.50
40257;DHT22;25977;45.462;9.210;2022-11-11T03:02:29;14.40;92.40
40257;DHT22;25977;45.462;9.210;2022-11-11T03:05:13;14.40;92.40
40257;DHT22;25977;45.462;9.210;2022-11-11T03:07:58;14.40;92.30
40257;DHT22;25977;45.462;9.210;2022-11-11T03:10:42;14.40;92.20
40257;DHT22;25977;45.462;9.210;2022-11-11T03:13:26;14.40;92.20
40257;DHT22;25977;45.462;9.210;2022-11-11T03:16:10;14.40;92.30
40257;DHT22;25977;45.462;9.210;2022-11-11T03:19:14;14.40;92.10
40257;DHT22;25977;45.462;9.210;2022-11-11T03:21:59;14.40;92.10
40257;DHT22;25977;45.462;9.210;2022-11-11T03:24:43;14.30;92.20
40257;DHT22;25977;45.462;9.210;2022-11-11T03:27:46;14.30;92.20
40257;DHT22;25977;45.462;9.210;2022-11-11T03:30:30;14.30;92.20
40257;DHT22;25977;45.462;9.210;2022-11-11T03:33:17;14.30;92.10
40257;DHT22;25977;45.462;9.210;2022-11-11T03:36:01;14.30;92.10
40257;DHT22;25977;45.462;9.210;2022-11-11T03:38:45;14.30;92.10
40257;DHT22;25977;45.462;9.210;2022-11-11T03:41:29;14.30;92.10
40257;DHT22;25977;45.462;9.210;2022-11-11T03:44:13;14.30;92.10
40257;DHT22;25977;45.462;9.210;2022-11-11T03:46:57;14.30;92.10
40257;DHT22;25977;45.462;9.210;2022-11-11T03:49:42;14.30;92.10
40257;DHT22;25977;45.462;9.210;2022-11-11T03:52:28;14.30;92.10
40257;DHT22;25977;45.462;9.210;2022-11-11T03:55:12;14.30;92.10
40257;DHT22;25977;45.462;9.210;2022-11-11T03:57:58;14.30;92.10
40257;DHT22;25977;45.462;9.210;2022-11-11T04:00:43;14.30;92.10
40257;DHT22;25977;45.462;9.210;2022-11-11T04:03:27;14.30;92.20
40257;DHT22;25977;45.462;9.210;2022-11-11T04:06:30;14.30;92.20
40257;DHT22;25977;45.462;9.210;2022-11-11T04:09:53;14.20;92.10
40257;DHT22;25977;45.462;9.210;2022-11-11T04:12:57;14.20;92.00
40257;DHT22;25977;45.462;9.210;2022-11-11T04:16:01;14.20;91.90
40257;DHT22;25977;45.462;9.210;2022-11-11T04:18:51;14.20;91.90
40257;DHT22;25977;45.462;9.210;2022-11-11T04:21:55;14.20;91.90
40257;DHT22;25977;45.462;9.210;2022-11-11T04:24:39;14.20;91.90
40257;DHT22;25977;45.462;9.210;2022-11-11T04:27:41;14.10;91.80
40257;DHT22;25977;45.462;9.210;2022-11-11T04:30:28;14.10;91.90
40257;DHT22;25977;45.462;9.210;2022-11-11T04:33:12;14.10;91.80
40257;DHT22;25977;45.462;9.210;2022-11-11T04:35:57;14.10;91.80
40257;DHT22;25977;45.462;9.210;2022-11-11T04:38:41;14.10;91.70
40257;DHT22;25977;45.462;9.210;2022-11-11T04:41:43;14.10;91.70
40257;DHT22;25977;45.462;9.210;2022-11-11T04:44:27;14.10;91.70
40257;DHT22;25977;45.462;9.210;2022-11-11T04:47:30;14.10;91.60
40257;DHT22;25977;45.462;9.210;2022-11-11T04:50:14;14.00;91.60
40257;DHT22;25977;45.462;9.210;2022-11-11T04:53:00;14.00;91.60
40257;DHT22;25977;45.462;9.210;2022-11-11T04:55:45;14.00;91.60
40257;DHT22;25977;45.462;9.210;2022-11-11T04:58:48;14.00;91.60
40257;DHT22;25977;45.462;9.210;2022-11-11T05:01:52;14.00;91.60
40257;DHT22;25977;45.462;9.210;2022-11-11T05:05:14;14.00;91.60
40257;DHT22;25977;45.462;9.210;2022-11-11T05:07:59;14.00;91.60
40257;DHT22;25977;45.462;9.210;2022-11-11T05:11:02;14.00;91.60
40257;DHT22;25977;45.462;9.210;2022-11-11T05:13:46;14.00;91.50
40257;DHT22;25977;45.462;9.210;2022-11-11T05:16:52;14.00;91.50
40257;DHT22;25977;45.462;9.210;2022-11-11T05:19:54;13.90;91.60
40257;DHT22;25977;45.462;9.210;2022-11-11T05:22:57;13.90;91.60
40257;DHT22;25977;45.462;9.210;2022-11-11T05:25:41;13.90;91.60
40257;DHT22;25977;45.462;9.210;2022-11-11T05:28:25;13.90;91.60
40257;DHT22;25977;45.462;9.210;2022-11-11T05:31:09;13.90;91.50
40257;DHT22;25977;45.462;9.210;2022-11-11T05:33:53;13.90;91.50
40257;DHT22;25977;45.462;9.210;2022-11-11T05:36:37;13.90;91.50
40257;DHT22;25977;45.462;9.210;2022-11-11T05:39:21;13.90;91.50
40257;DHT22;25977;45.462;9.210;2022-11-11T05:42:06;13.90;91.50
40257;DHT22;25977;45.462;9.210;2022-11-11T05:44:50;13.80;91.50
40257;DHT22;25977;45.462;9.210;2022-11-11T05:47:34;13.90;91.60
40257;DHT22;25977;45.462;9.210;2022-11-11T05:50:18;13.90;91.60
40257;DHT22;25977;45.462;9.210;2022-11-11T05:53:02;13.90;91.60
40257;DHT22;25977;45.462;9.210;2022-11-11T05:55:46;13.90;91.60
40257;DHT22;25977;45.462;9.210;2022-11-11T05:58:30;13.90;91.60
40257;DHT22;25977;45.462;9.210;2022-11-11T06:01:14;13.90;91.60
40257;DHT22;25977;45.462;9.210;2022-11-11T06:03:58;13.80;91.50
40257;DHT22;25977;45.462;9.210;2022-11-11T06:06:43;13.70;91.60
40257;DHT22;25977;45.462;9.210;2022-11-11T06:09:27;13.70;91.70
40257;DHT22;25977;45.462;9.210;2022-11-11T06:12:11;13.70;91.60
40257;DHT22;25977;45.462;9.210;2022-11-11T06:14:56;13.70;91.60
40257;DHT22;25977;45.462;9.210;2022-11-11T06:17:40;13.70;91.60
40257;DHT22;25977;45.462;9.210;2022-11-11T06:20:24;13.70;91.60
40257;DHT22;25977;45.462;9.210;2022-11-11T06:23:09;13.70;91.50
40257;DHT22;25977;45.462;9.210;2022-11-11T06:25:53;13.80;91.50
40257;DHT22;25977;45.462;9.210;2022-11-11T06:28:56;13.80;91.50
40257;DHT22;25977;45.462;9.210;2022-11-11T06:31:41;13.80;91.50
40257;DHT22;25977;45.462;9.210;2022-11-11T06:34:25;13.80;91.50
40257;DHT22;25977;45.462;9.210;2022-11-11T06:37:09;13.80;91.50
40257;DHT22;25977;45.462;9.210;2022-11-11T06:39:53;13.80;91.50
40257;DHT22;25977;45.462;9.210;2022-11-11T06:42:37;13.80;91.40
40257;DHT22;25977;45.462;9.210;2022-11-11T06:45:24;13.90;91.40
40257;DHT22;25977;45.462;9.210;2022-11-11T06:48:09;13.90;91.40
40257;DHT22;25977;45.462;9.210;2022-11-11T06:50:59;13.90;91.40
40257;DHT22;25977;45.462;9.210;2022-11-11T06:53:44;13.90;91.30
40257;DHT22;25977;45.462;9.210;2022-11-11T06:56:28;13.90;91.30
40257;DHT22;25977;45.462;9.210;2022-11-11T06:59:12;13.80;91.40
40257;DHT22;25977;45.462;9.210;2022-11-11T07:01:56;13.80;91.40
40257;DHT22;25977;45.462;9.210;2022-11-11T07:04:40;13.80;91.40
40257;DHT22;25977;45.462;9.210;2022-11-11T07:07:24;13.90;91.40
40257;DHT22;25977;45.462;9.210;2022-11-11T07:10:09;13.90;91.20
40257;DHT22;25977;45.462;9.210;2022-11-11T07:12:53;14.00;91.20
40257;DHT22;25977;45.462;9.210;2022-11-11T07:15:38;14.00;91.20
40257;DHT22;25977;45.462;9.210;2022-11-11T07:18:22;14.10;91.10
40257;DHT22;25977;45.462;9.210;2022-11-11T07:21:07;14.10;91.10
40257;DHT22;25977;45.462;9.210;2022-11-11T07:23:51;14.10;91.00
40257;DHT22;25977;45.462;9.210;2022-11-11T07:26:35;14.20;91.00
40257;DHT22;25977;45.462;9.210;2022-11-11T07:29:19;14.20;91.00
40257;DHT22;25977;45.462;9.210;2022-11-11T07:32:03;14.20;91.00
40257;DHT22;25977;45.462;9.210;2022-11-11T07:34:47;14.30;91.00
40257;DHT22;25977;45.462;9.210;2022-11-11T07:37:35;14.30;90.80
40257;DHT22;25977;45.462;9.210;2022-11-11T07:40:20;14.30;90.90
40257;DHT22;25977;45.462;9.210;2022-11-11T07:43:04;14.40;90.80
40257;DHT22;25977;45.462;9.210;2022-11-11T07:45:48;14.40;90.80
40257;DHT22;25977;45.462;9.210;2022-11-11T07:48:33;14.40;90.80
40257;DHT22;25977;45.462;9.210;2022-11-11T07:51:17;14.50;90.70
40257;DHT22;25977;45.462;9.210;2022-11-11T07:54:02;14.60;90.70
40257;DHT22;25977;45.462;9.210;2022-11-11T07:56:47;14.60;90.50
40257;DHT22;25977;45.462;9.210;2022-11-11T07:59:31;14.50;90.60
40257;DHT22;25977;45.462;9.210;2022-11-11T08:02:15;14.40;90.60
40257;DHT22;25977;45.462;9.210;2022-11-11T08:05:00;14.40;90.70
40257;DHT22;25977;45.462;9.210;2022-11-11T08:07:44;14.50;90.60
40257;DHT22;25977;45.462;9.210;2022-11-11T08:10:28;14.50;90.50
40257;DHT22;25977;45.462;9.210;2022-11-11T08:13:12;14.60;90.40
40257;DHT22;25977;45.462;9.210;2022-11-11T08:16:15;14.80;90.40
40257;DHT22;25977;45.462;9.210;2022-11-11T08:18:59;14.90;90.40
40257;DHT22;25977;45.462;9.210;2022-11-11T08:21:44;15.10;90.30
40257;DHT22;25977;45.462;9.210;2022-11-11T08:24:28;15.30;90.10
40257;DHT22;25977;45.462;9.210;2022-11-11T08:27:13;15.50;89.60
40257;DHT22;25977;45.462;9.210;2022-11-11T08:29:57;15.70;88.90
40257;DHT22;25977;45.462;9.210;2022-11-11T08:32:41;15.90;88.60
40257;DHT22;25977;45.462;9.210;2022-11-11T08:35:25;16.10;88.30
40257;DHT22;25977;45.462;9.210;2022-11-11T08:38:10;16.20;87.70
40257;DHT22;25977;45.462;9.210;2022-11-11T08:41:00;16.20;87.30
40257;DHT22;25977;45.462;9.210;2022-11-11T08:43:44;16.30;87.30
40257;DHT22;25977;45.462;9.210;2022-11-11T08:46:28;16.30;86.70
40257;DHT22;25977;45.462;9.210;2022-11-11T08:49:12;16.40;86.60
40257;DHT22;25977;45.462;9.210;2022-11-11T08:51:57;16.30;85.90
40257;DHT22;25977;45.462;9.210;2022-11-11T08:54:41;16.20;86.20
40257;DHT22;25977;45.462;9.210;2022-11-11T08:57:26;16.20;86.50
40257;DHT22;25977;45.462;9.210;2022-11-11T09:00:11;16.40;86.70
40257;DHT22;25977;45.462;9.210;2022-11-11T09:03:01;16.60;86.30
40257;DHT22;25977;45.462;9.210;2022-11-11T09:05:45;16.70;85.30
40257;DHT22;25977;45.462;9.210;2022-11-11T09:08:30;16.70;85.50
40257;DHT22;25977;45.462;9.210;2022-11-11T09:11:14;16.70;84.90
40257;DHT22;25977;45.462;9.210;2022-11-11T09:13:58;16.80;85.30
40257;DHT22;25977;45.462;9.210;2022-11-11T09:16:42;17.00;84.80
40257;DHT22;25977;45.462;9.210;2022-11-11T09:19:26;17.10;84.80
40257;DHT22;25977;45.462;9.210;2022-11-11T09:22:10;17.40;84.50
40257;DHT22;25977;45.462;9.210;2022-11-11T09:24:54;17.30;83.40
40257;DHT22;25977;45.462;9.210;2022-11-11T09:27:39;17.40;83.90
40257;DHT22;25977;45.462;9.210;2022-11-11T09:30:24;17.60;83.80
40257;DHT22;25977;45.462;9.210;2022-11-11T09:33:08;17.70;83.30
40257;DHT22;25977;45.462;9.210;2022-11-11T09:35:57;17.80;83.00
40257;DHT22;25977;45.462;9.210;2022-11-11T09:38:42;17.90;82.20
40257;DHT22;25977;45.462;9.210;2022-11-11T09:50:38;18.30;81.60
40257;DHT22;25977;45.462;9.210;2022-11-11T09:53:36;18.30;81.10
40257;DHT22;25977;45.462;9.210;2022-11-11T09:56:25;18.30;80.70
40257;DHT22;25977;45.462;9.210;2022-11-11T09:59:21;18.30;81.10
40257;DHT22;25977;45.462;9.210;2022-11-11T10:02:33;18.40;80.70
40257;DHT22;25977;45.462;9.210;2022-11-11T10:05:30;18.40;80.50
40257;DHT22;25977;45.462;9.210;2022-11-11T10:08:26;18.50;80.40
40257;DHT22;25977;45.462;9.210;2022-11-11T10:11:26;18.50;80.20
40257;DHT22;25977;45.462;9.210;2022-11-11T10:14:15;18.40;80.10
40257;DHT22;25977;45.462;9.210;2022-11-11T10:22:44;18.60;79.90
40257;DHT22;25977;45.462;9.210;2022-11-11T10:25:29;18.70;79.90
40257;DHT22;25977;45.462;9.210;2022-11-11T10:28:16;18.60;79.80
40257;DHT22;25977;45.462;9.210;2022-11-11T10:31:05;18.60;79.90
40257;DHT22;25977;45.462;9.210;2022-11-11T10:34:14;18.70;79.80
40257;DHT22;25977;45.462;9.210;2022-11-11T10:37:01;18.60;80.00
40257;DHT22;25977;45.462;9.210;2022-11-11T10:43:17;18.60;79.80
40257;DHT22;25977;45.462;9.210;2022-11-11T10:46:20;18.70;79.80
40257;DHT22;25977;45.462;9.210;2022-11-11T10:49:11;18.70;80.00
40257;DHT22;25977;45.462;9.210;2022-11-11T10:52:11;18.60;80.00
40257;DHT22;25977;45.462;9.210;2022-11-11T10:55:04;18.70;80.20
40257;DHT22;25977;45.462;9.210;2022-11-11T10:58:01;18.80;80.50
40257;DHT22;25977;45.462;9.210;2022-11-11T11:00:51;18.80;80.40
40257;DHT22;25977;45.462;9.210;2022-11-11T11:03:49;18.60;80.70
40257;DHT22;25977;45.462;9.210;2022-11-11T11:06:42;18.70;80.90
40257;DHT22;25977;45.462;9.210;2022-11-11T11:09:34;18.80;81.10
40257;DHT22;25977;45.462;9.210;2022-11-11T11:15:12;18.80;81.80
40257;DHT22;25977;45.462;9.210;2022-11-11T11:18:07;18.70;81.50
40257;DHT22;25977;45.462;9.210;2022-11-11T11:20:56;18.70;81.20
40257;DHT22;25977;45.462;9.210;2022-11-11T11:23:42;18.70;81.30
40257;DHT22;25977;45.462;9.210;2022-11-11T11:26:42;18.70;81.20
40257;DHT22;25977;45.462;9.210;2022-11-11T11:32:26;18.80;81.10
40257;DHT22;25977;45.462;9.210;2022-11-11T11:38:19;18.70;81.60
40257;DHT22;25977;45.462;9.210;2022-11-11T11:41:03;18.80;81.70
40257;DHT22;25977;45.462;9.210;2022-11-11T11:43:47;18.90;81.60
40257;DHT22;25977;45.462;9.210;2022-11-11T11:46:38;18.90;81.60
40257;DHT22;25977;45.462;9.210;2022-11-11T11:55:21;18.90;81.60
40257;DHT22;25977;45.462;9.210;2022-11-11T11:58:49;18.90;82.20
40257;DHT22;25977;45.462;9.210;2022-11-11T12:04:57;18.90;81.50
40257;DHT22;25977;45.462;9.210;2022-11-11T12:07:55;19.00;81.60
40257;DHT22;25977;45.462;9.210;2022-11-11T12:26:12;19.10;81.50
40257;DHT22;25977;45.462;9.210;2022-11-11T12:29:26;19.20;81.50
40257;DHT22;25977;45.462;9.210;2022-11-11T12:32:27;19.30;81.40
40257;DHT22;25977;45.462;9.210;2022-11-11T12:44:17;19.40;80.60
40257;DHT22;25977;45.462;9.210;2022-11-11T12:50:25;19.50;80.50
40257;DHT22;25977;45.462;9.210;2022-11-11T12:56:38;19.40;80.80
40257;DHT22;25977;45.462;9.210;2022-11-11T13:02:47;19.30;80.60
40257;DHT22;25977;45.462;9.210;2022-11-11T13:11:51;19.30;80.80
40257;DHT22;25977;45.462;9.210;2022-11-11T13:17:39;19.30;81.10
40257;DHT22;25977;45.462;9.210;2022-11-11T13:21:00;19.20;81.40
40257;DHT22;25977;45.462;9.210;2022-11-11T13:23:47;19.10;81.50
40257;DHT22;25977;45.462;9.210;2022-11-11T13:26:40;18.80;82.60
40257;DHT22;25977;45.462;9.210;2022-11-11T13:32:44;18.80;82.60
40257;DHT22;25977;45.462;9.210;2022-11-11T13:35:36;18.90;82.50
40257;DHT22;25977;45.462;9.210;2022-11-11T13:41:27;18.90;82.70
40257;DHT22;25977;45.462;9.210;2022-11-11T13:44:19;18.90;82.60
40257;DHT22;25977;45.462;9.210;2022-11-11T13:47:09;18.90;82.70
40257;DHT22;25977;45.462;9.210;2022-11-11T13:49:58;18.90;82.70
40257;DHT22;25977;45.462;9.210;2022-11-11T13:53:15;18.80;83.10
40257;DHT22;25977;45.462;9.210;2022-11-11T13:56:02;18.80;83.10
40257;DHT22;25977;45.462;9.210;2022-11-11T13:58:48;18.80;83.00
40257;DHT22;25977;45.462;9.210;2022-11-11T14:01:37;18.80;83.20
40257;DHT22;25977;45.462;9.210;2022-11-11T14:04:24;18.70;82.90
40257;DHT22;25977;45.462;9.210;2022-11-11T14:07:07;18.70;83.40
40257;DHT22;25977;45.462;9.210;2022-11-11T14:09:58;18.60;83.60
40257;DHT22;25977;45.462;9.210;2022-11-11T14:12:52;18.70;83.60
40257;DHT22;25977;45.462;9.210;2022-11-11T14:15:38;18.70;83.70
40257;DHT22;25977;45.462;9.210;2022-11-11T14:21:08;18.60;84.00
40257;DHT22;25977;45.462;9.210;2022-11-11T14:23:54;18.60;84.20
40257;DHT22;25977;45.462;9.210;2022-11-11T14:26:38;18.60;84.40
40257;DHT22;25977;45.462;9.210;2022-11-11T14:29:24;18.60;84.60
40257;DHT22;25977;45.462;9.210;2022-11-11T14:47:19;18.30;86.00
40257;DHT22;25977;45.462;9.210;2022-11-11T14:53:18;18.30;86.30
40257;DHT22;25977;45.462;9.210;2022-11-11T14:56:04;18.30;86.40
40257;DHT22;25977;45.462;9.210;2022-11-11T14:59:06;18.10;86.70
40257;DHT22;25977;45.462;9.210;2022-11-11T15:01:53;18.20;86.90
40257;DHT22;25977;45.462;9.210;2022-11-11T15:04:39;18.20;86.90
40257;DHT22;25977;45.462;9.210;2022-11-11T15:07:36;18.20;87.00
40257;DHT22;25977;45.462;9.210;2022-11-11T15:10:29;18.10;86.90
40257;DHT22;25977;45.462;9.210;2022-11-11T15:38:12;17.80;88.30
40257;DHT22;25977;45.462;9.210;2022-11-11T15:40:58;17.80;88.40
40257;DHT22;25977;45.462;9.210;2022-11-11T15:43:43;17.80;88.50
40257;DHT22;25977;45.462;9.210;2022-11-11T15:46:29;17.70;88.50
40257;DHT22;25977;45.462;9.210;2022-11-11T15:49:35;17.70;88.70
40257;DHT22;25977;45.462;9.210;2022-11-11T15:55:30;17.60;88.70
40257;DHT22;25977;45.462;9.210;2022-11-11T15:58:23;17.60;88.70
40257;DHT22;25977;45.462;9.210;2022-11-11T16:01:10;17.60;88.80
40257;DHT22;25977;45.462;9.210;2022-11-11T16:03:55;17.60;88.90
40257;DHT22;25977;45.462;9.210;2022-11-11T16:06:39;17.50;88.90
40257;DHT22;25977;45.462;9.210;2022-11-11T16:09:27;17.50;89.00
40257;DHT22;25977;45.462;9.210;2022-11-11T16:12:18;17.50;89.00
40257;DHT22;25977;45.462;9.210;2022-11-11T16:15:07;17.50;89.10
40257;DHT22;25977;45.462;9.210;2022-11-11T16:17:54;17.40;89.10
40257;DHT22;25977;45.462;9.210;2022-11-11T16:20:47;17.40;89.20
40257;DHT22;25977;45.462;9.210;2022-11-11T16:23:33;17.40;89.40
40257;DHT22;25977;45.462;9.210;2022-11-11T16:26:19;17.40;89.40
40257;DHT22;25977;45.462;9.210;2022-11-11T16:29:13;17.30;89.60
40257;DHT22;25977;45.462;9.210;2022-11-11T16:31:58;18.50;90.10
40257;DHT22;25977;45.462;9.210;2022-11-11T16:34:43;17.30;89.70
40257;DHT22;25977;45.462;9.210;2022-11-11T16:37:49;17.30;89.80
40257;DHT22;25977;45.462;9.210;2022-11-11T16:43:40;17.20;89.90
40257;DHT22;25977;45.462;9.210;2022-11-11T16:49:39;17.20;90.00
40257;DHT22;25977;45.462;9.210;2022-11-11T16:52:26;17.10;90.00
40257;DHT22;25977;45.462;9.210;2022-11-11T16:55:35;17.10;90.10
40257;DHT22;25977;45.462;9.210;2022-11-11T16:58:21;17.10;90.10
40257;DHT22;25977;45.462;9.210;2022-11-11T17:01:06;17.10;90.10
40257;DHT22;25977;45.462;9.210;2022-11-11T17:03:55;17.00;90.10
40257;DHT22;25977;45.462;9.210;2022-11-11T17:09:38;16.80;90.30
40257;DHT22;25977;45.462;9.210;2022-11-11T17:12:30;16.90;90.40
40257;DHT22;25977;45.462;9.210;2022-11-11T17:15:15;16.90;90.40
40257;DHT22;25977;45.462;9.210;2022-11-11T17:18:00;16.90;90.40
40257;DHT22;25977;45.462;9.210;2022-11-11T17:20:45;16.90;90.40
40257;DHT22;25977;45.462;9.210;2022-11-11T17:23:29;16.90;90.40
40257;DHT22;25977;45.462;9.210;2022-11-11T17:26:16;16.90;90.40
40257;DHT22;25977;45.462;9.210;2022-11-11T17:29:00;16.80;90.40
40257;DHT22;25977;45.462;9.210;2022-11-11T17:31:44;16.70;90.50
40257;DHT22;25977;45.462;9.210;2022-11-11T17:34:28;16.70;90.50
40257;DHT22;25977;45.462;9.210;2022-11-11T17:37:13;16.70;90.50
40257;DHT22;25977;45.462;9.210;2022-11-11T17:39:57;16.70;90.60
40257;DHT22;25977;45.462;9.210;2022-11-11T17:42:41;16.70;90.60
40257;DHT22;25977;45.462;9.210;2022-11-11T17:45:25;16.70;90.60
40257;DHT22;25977;45.462;9.210;2022-11-11T17:48:11;16.70;90.60
40257;DHT22;25977;45.462;9.210;2022-11-11T17:50:55;16.60;90.60
40257;DHT22;25977;45.462;9.210;2022-11-11T17:53:40;16.60;90.60
40257;DHT22;25977;45.462;9.210;2022-11-11T17:56:24;16.60;90.60
40257;DHT22;25977;45.462;9.210;2022-11-11T17:59:09;16.60;90.60
40257;DHT22;25977;45.462;9.210;2022-11-11T18:01:54;16.60;90.60
40257;DHT22;25977;45.462;9.210;2022-11-11T18:04:38;16.60;90.70
40257;DHT22;25977;45.462;9.210;2022-11-11T18:07:23;16.60;90.70
40257;DHT22;25977;45.462;9.210;2022-11-11T18:10:09;16.60;90.70
40257;DHT22;25977;45.462;9.210;2022-11-11T18:12:53;16.60;90.80
40257;DHT22;25977;45.462;9.210;2022-11-11T18:15:37;16.60;90.70
40257;DHT22;25977;45.462;9.210;2022-11-11T18:18:21;16.50;90.70
40257;DHT22;25977;45.462;9.210;2022-11-11T18:21:05;16.50;90.70
40257;DHT22;25977;45.462;9.210;2022-11-11T18:23:50;16.50;90.70
40257;DHT22;25977;45.462;9.210;2022-11-11T18:26:35;16.50;90.70
40257;DHT22;25977;45.462;9.210;2022-11-11T18:29:20;16.50;90.70
40257;DHT22;25977;45.462;9.210;2022-11-11T18:32:05;16.50;90.70
40257;DHT22;25977;45.462;9.210;2022-11-11T18:34:49;16.50;90.70
40257;DHT22;25977;45.462;9.210;2022-11-11T18:37:33;16.50;90.70
40257;DHT22;25977;45.462;9.210;2022-11-11T18:40:20;16.40;90.70
40257;DHT22;25977;45.462;9.210;2022-11-11T18:43:04;16.50;90.70
40257;DHT22;25977;45.462;9.210;2022-11-11T18:45:48;16.40;90.70
40257;DHT22;25977;45.462;9.210;2022-11-11T18:48:33;16.40;90.70
40257;DHT22;25977;45.462;9.210;2022-11-11T18:51:18;16.40;90.70
40257;DHT22;25977;45.462;9.210;2022-11-11T18:54:02;16.40;90.80
40257;DHT22;25977;45.462;9.210;2022-11-11T18:56:47;16.40;90.80
40257;DHT22;25977;45.462;9.210;2022-11-11T18:59:31;16.30;90.80
40257;DHT22;25977;45.462;9.210;2022-11-11T19:02:15;16.30;90.80
40257;DHT22;25977;45.462;9.210;2022-11-11T19:04:59;16.30;90.90
40257;DHT22;25977;45.462;9.210;2022-11-11T19:07:46;16.30;90.90
40257;DHT22;25977;45.462;9.210;2022-11-11T19:10:30;16.20;90.90
40257;DHT22;25977;45.462;9.210;2022-11-11T19:13:14;16.20;90.90
40257;DHT22;25977;45.462;9.210;2022-11-11T19:16:13;16.20;91.00
40257;DHT22;25977;45.462;9.210;2022-11-11T19:18:59;16.20;91.00
40257;DHT22;25977;45.462;9.210;2022-11-11T19:21:43;16.20;91.00
40257;DHT22;25977;45.462;9.210;2022-11-11T19:24:27;16.20;91.10
40257;DHT22;25977;45.462;9.210;2022-11-11T19:27:11;16.10;91.30
40257;DHT22;25977;45.462;9.210;2022-11-11T19:29:55;16.20;91.10
40257;DHT22;25977;45.462;9.210;2022-11-11T19:32:40;16.10;91.10
40257;DHT22;25977;45.462;9.210;2022-11-11T19:35:25;16.10;91.10
40257;DHT22;25977;45.462;9.210;2022-11-11T19:38:09;16.20;91.10
40257;DHT22;25977;45.462;9.210;2022-11-11T19:40:54;16.20;91.10
40257;DHT22;25977;45.462;9.210;2022-11-11T19:43:39;16.10;91.10
40257;DHT22;25977;45.462;9.210;2022-11-11T19:46:25;16.10;91.10
40257;DHT22;25977;45.462;9.210;2022-11-11T19:49:10;16.10;91.10
40257;DHT22;25977;45.462;9.210;2022-11-11T19:51:54;16.10;91.10
40257;DHT22;25977;45.462;9.210;2022-11-11T19:54:39;16.10;91.10
40257;DHT22;25977;45.462;9.210;2022-11-11T19:57:23;16.10;91.10
40257;DHT22;25977;45.462;9.210;2022-11-11T20:00:09;16.10;91.20
40257;DHT22;25977;45.462;9.210;2022-11-11T20:02:53;16.00;91.20
40257;DHT22;25977;45.462;9.210;2022-11-11T20:05:38;16.00;91.20
40257;DHT22;25977;45.462;9.210;2022-11-11T20:08:21;16.00;91.30
40257;DHT22;25977;45.462;9.210;2022-11-11T20:11:07;16.00;91.30
40257;DHT22;25977;45.462;9.210;2022-11-11T20:13:53;16.00;91.30
40257;DHT22;25977;45.462;9.210;2022-11-11T20:16:37;16.00;91.30
40257;DHT22;25977;45.462;9.210;2022-11-11T20:19:22;16.00;91.30
40257;DHT22;25977;45.462;9.210;2022-11-11T20:22:06;16.00;91.30